createdAt,value
2017-07-19T00:00:02.973Z,0
2017-07-19T00:05:02.534Z,0
2017-07-19T00:10:02.898Z,0
2017-07-19T00:15:03.209Z,0
2017-07-19T00:20:02.695Z,0
2017-07-19T00:25:03.015Z,0
2017-07-19T00:30:03.306Z,0
2017-07-19T00:35:02.597Z,0
2017-07-19T00:40:03.064Z,0
2017-07-19T00:45:02.340Z,0
2017-07-19T00:50:02.699Z,0
2017-07-19T00:55:02.991Z,0
2017-07-19T01:00:02.423Z,0
2017-07-19T01:05:02.698Z,0
2017-07-19T01:10:03.054Z,0
2017-07-19T01:15:02.456Z,0
2017-07-19T01:20:02.933Z,0
2017-07-19T01:25:03.271Z,0
2017-07-19T01:30:02.532Z,0
2017-07-19T01:35:02.888Z,0
2017-07-19T01:40:02.406Z,0
2017-07-19T01:45:02.773Z,0
2017-07-19T01:50:03.274Z,0
2017-07-19T01:55:02.769Z,0
2017-07-19T02:00:03.070Z,0
2017-07-19T02:05:02.541Z,0
2017-07-19T02:10:03.109Z,0
2017-07-19T02:15:02.552Z,0
2017-07-19T02:20:02.877Z,0
2017-07-19T02:25:03.246Z,0
2017-07-19T02:30:02.583Z,0
2017-07-19T02:35:02.872Z,0
2017-07-19T02:40:03.181Z,0
2017-07-19T02:45:02.468Z,0
2017-07-19T02:50:02.975Z,0
2017-07-19T02:55:02.434Z,1
2017-07-19T03:00:02.844Z,2
2017-07-19T03:05:03.137Z,4
2017-07-19T03:10:02.665Z,10
2017-07-19T03:15:02.983Z,20
2017-07-19T03:20:02.394Z,39
2017-07-19T03:25:02.894Z,57
2017-07-19T03:30:03.203Z,73
2017-07-19T03:35:02.553Z,84
2017-07-19T03:40:03.071Z,140
2017-07-19T03:45:02.402Z,226
2017-07-19T03:50:02.844Z,330
2017-07-19T03:55:03.217Z,591
2017-07-19T04:00:02.513Z,708
2017-07-19T04:05:02.985Z,852
2017-07-19T04:10:02.636Z,972
2017-07-19T04:15:02.908Z,1000
2017-07-19T04:20:03.311Z,1000
2017-07-19T04:25:02.657Z,1000
2017-07-19T04:30:03.196Z,1000
2017-07-19T04:35:02.507Z,1000
2017-07-19T04:40:02.862Z,1000
2017-07-19T04:45:03.164Z,1000
2017-07-19T04:50:02.468Z,1000
2017-07-19T04:55:02.882Z,1000
2017-07-19T05:00:02.354Z,1000
2017-07-19T05:05:02.802Z,1000
2017-07-19T05:10:03.135Z,1000
2017-07-19T05:15:02.458Z,2000
2017-07-19T05:20:02.955Z,2000
2017-07-19T05:25:03.273Z,2000
2017-07-19T05:30:02.621Z,2000
2017-07-19T05:35:03.106Z,2000
2017-07-19T05:40:02.703Z,2000
2017-07-19T05:45:03.224Z,2000
2017-07-19T05:50:02.682Z,3000
2017-07-19T05:55:03.142Z,3000
2017-07-19T06:00:02.584Z,3000
2017-07-19T06:05:03.042Z,3000
2017-07-19T06:10:02.609Z,3000
2017-07-19T06:15:02.978Z,3000
2017-07-19T06:20:03.277Z,4000
2017-07-19T06:25:02.557Z,4000
2017-07-19T06:30:02.982Z,4000
2017-07-19T06:35:02.442Z,5000
2017-07-19T06:40:03.153Z,5000
2017-07-19T06:45:02.609Z,5000
2017-07-19T06:50:03.035Z,6000
2017-07-19T06:55:02.647Z,6000
2017-07-19T07:00:03.099Z,6000
2017-07-19T07:05:02.490Z,7000
2017-07-19T07:10:02.998Z,7000
2017-07-19T07:15:02.351Z,7000
2017-07-19T07:20:02.820Z,8000
2017-07-19T07:25:03.292Z,8000
2017-07-19T07:30:02.716Z,8000
2017-07-19T07:35:02.998Z,9000
2017-07-19T07:40:02.547Z,8000
2017-07-19T07:45:03.094Z,7000
2017-07-19T07:50:02.561Z,7000
2017-07-19T07:55:03.048Z,7000
2017-07-19T08:00:02.394Z,8000
2017-07-19T08:05:02.940Z,20000
2017-07-19T08:10:03.306Z,32000
2017-07-19T08:15:02.783Z,36000
2017-07-19T08:20:03.212Z,40000
2017-07-19T08:25:02.549Z,36000
2017-07-19T08:30:03.039Z,32000
2017-07-19T08:35:02.341Z,21000
2017-07-19T08:40:02.870Z,25000
2017-07-19T08:45:03.330Z,41000
2017-07-19T08:50:02.594Z,37000
2017-07-19T08:55:02.914Z,45000
2017-07-19T09:00:03.183Z,47000
2017-07-19T09:05:02.500Z,47000
2017-07-19T09:10:03.025Z,48000
2017-07-19T09:15:02.371Z,47000
2017-07-19T09:20:02.910Z,48000
2017-07-19T09:25:02.463Z,48000
2017-07-19T09:30:02.787Z,48000
2017-07-19T09:35:03.131Z,48000
2017-07-19T09:40:02.606Z,20000
2017-07-19T09:45:03.064Z,50000
2017-07-19T09:50:02.517Z,49000
2017-07-19T09:55:02.824Z,49000
2017-07-19T10:00:03.195Z,42000
2017-07-19T10:05:02.739Z,30000
2017-07-19T10:10:03.093Z,33000
2017-07-19T10:15:02.379Z,44000
2017-07-19T10:20:02.761Z,45000
2017-07-19T10:25:03.216Z,47000
2017-07-19T10:30:02.615Z,34000
2017-07-19T10:35:03.010Z,36000
2017-07-19T10:40:02.485Z,39000
2017-07-19T10:45:02.952Z,44000
2017-07-19T10:50:02.446Z,40000
2017-07-19T10:55:02.830Z,46000
2017-07-19T11:00:03.265Z,41000
2017-07-19T11:05:02.642Z,45000
2017-07-19T11:10:03.161Z,43000
2017-07-19T11:15:02.757Z,35000
2017-07-19T11:20:03.051Z,47000
2017-07-19T11:25:02.328Z,42000
2017-07-19T11:30:02.597Z,46000
2017-07-19T11:35:03.133Z,32000
2017-07-19T11:40:02.612Z,36000
2017-07-19T11:45:03.030Z,17000
2017-07-19T11:50:02.358Z,15000
2017-07-19T11:55:02.831Z,14000
2017-07-19T12:00:03.337Z,23000
2017-07-19T12:05:02.617Z,26000
2017-07-19T12:10:03.145Z,24000
2017-07-19T12:15:02.437Z,27000
2017-07-19T12:20:02.826Z,31000
2017-07-19T12:25:03.151Z,35000
2017-07-19T12:30:02.436Z,36000
2017-07-19T12:35:02.731Z,38000
2017-07-19T12:40:03.060Z,37000
2017-07-19T12:45:02.365Z,40000
2017-07-19T12:50:02.904Z,31000
2017-07-19T12:55:03.182Z,24000
2017-07-19T13:00:02.473Z,18000
2017-07-19T13:05:02.777Z,33000
2017-07-19T13:10:03.253Z,34000
2017-07-19T13:15:02.753Z,17000
2017-07-19T13:20:03.219Z,9000
2017-07-19T13:25:02.627Z,10000
2017-07-19T13:30:02.962Z,10000
2017-07-19T13:35:02.279Z,10000
2017-07-19T13:40:02.815Z,11000
2017-07-19T13:45:03.116Z,12000
2017-07-19T13:50:02.586Z,7000
2017-07-19T13:55:03.067Z,6000
2017-07-19T14:00:02.497Z,7000
2017-07-19T14:05:02.946Z,6000
2017-07-19T14:10:02.487Z,5000
2017-07-19T14:15:02.788Z,5000
2017-07-19T14:20:03.211Z,5000
2017-07-19T14:25:02.641Z,4000
2017-07-19T14:30:02.898Z,3000
2017-07-19T14:35:03.293Z,3000
2017-07-19T14:40:02.609Z,3000
2017-07-19T14:45:02.371Z,3000
2017-07-19T14:50:03.261Z,3000
2017-07-19T14:55:02.991Z,3000
2017-07-19T15:00:02.859Z,3000
2017-07-19T15:05:02.863Z,3000
2017-07-19T15:10:03.002Z,3000
2017-07-19T15:15:02.842Z,4000
2017-07-19T15:20:02.688Z,4000
2017-07-19T15:25:02.441Z,4000
2017-07-19T15:30:02.334Z,3000
2017-07-19T15:35:03.278Z,3000
2017-07-19T15:40:03.256Z,3000
2017-07-19T15:45:03.260Z,3000
2017-07-19T15:50:03.120Z,3000
2017-07-19T15:55:02.860Z,3000
2017-07-19T16:00:02.800Z,3000
2017-07-19T16:05:02.634Z,3000
2017-07-19T16:10:02.515Z,2000
2017-07-19T16:15:02.532Z,2000
2017-07-19T16:20:02.429Z,2000
2017-07-19T16:25:02.644Z,2000
2017-07-19T16:30:02.379Z,2000
2017-07-19T16:35:03.276Z,3000
2017-07-19T16:40:03.218Z,4000
2017-07-19T16:45:03.189Z,5000
2017-07-19T16:50:02.678Z,7000
2017-07-19T16:55:03.065Z,7000
2017-07-19T17:00:02.324Z,8000
2017-07-19T17:05:02.751Z,7000
2017-07-19T17:10:03.111Z,7000
2017-07-19T17:15:02.537Z,8000
2017-07-19T17:20:02.835Z,7000
2017-07-19T17:25:03.331Z,12000
2017-07-19T17:30:02.603Z,11000
2017-07-19T17:35:02.990Z,10000
2017-07-19T17:40:02.342Z,9000
2017-07-19T17:45:02.804Z,8000
2017-07-19T17:50:03.199Z,8000
2017-07-19T17:55:02.568Z,3000
2017-07-19T18:00:03.005Z,6000
2017-07-19T18:05:02.409Z,6000
2017-07-19T18:10:02.901Z,5000
2017-07-19T18:15:03.235Z,4000
2017-07-19T18:20:02.663Z,2000
2017-07-19T18:25:03.093Z,1000
2017-07-19T18:30:02.536Z,1000
2017-07-19T18:35:03.029Z,1000
2017-07-19T18:40:02.495Z,2000
2017-07-19T18:45:02.911Z,2000
2017-07-19T18:50:03.234Z,1000
2017-07-19T18:55:02.539Z,1000
2017-07-19T19:00:02.898Z,1000
2017-07-19T19:05:02.403Z,979
2017-07-19T19:10:02.936Z,843
2017-07-19T19:15:02.390Z,777
2017-07-19T19:20:02.755Z,643
2017-07-19T19:25:03.057Z,515
2017-07-19T19:30:02.361Z,385
2017-07-19T19:35:02.718Z,163
2017-07-19T19:40:03.110Z,83
2017-07-19T19:45:02.377Z,67
2017-07-19T19:50:02.816Z,55
2017-07-19T19:55:03.124Z,42
2017-07-19T20:00:02.447Z,28
2017-07-19T20:05:02.795Z,17
2017-07-19T20:10:03.306Z,9
2017-07-19T20:15:02.589Z,4
2017-07-19T20:20:03.021Z,1
2017-07-19T20:25:02.340Z,1
2017-07-19T20:30:02.684Z,0
2017-07-19T20:35:03.227Z,0
2017-07-19T20:40:02.533Z,0
2017-07-19T20:45:02.782Z,0
2017-07-19T20:50:03.111Z,0
2017-07-19T20:55:02.361Z,0
2017-07-19T21:00:02.735Z,0
2017-07-19T21:05:03.243Z,0
2017-07-19T21:10:02.786Z,0
2017-07-19T21:15:03.282Z,0
2017-07-19T21:20:02.661Z,0
2017-07-19T21:25:03.141Z,0
2017-07-19T21:30:02.660Z,0
2017-07-19T21:35:03.127Z,0
2017-07-19T21:40:02.579Z,0
2017-07-19T21:45:02.996Z,0
2017-07-19T21:50:02.462Z,0
2017-07-19T21:55:02.852Z,0
2017-07-19T22:00:03.167Z,0
2017-07-19T22:05:02.584Z,0
2017-07-19T22:10:03.090Z,0
2017-07-19T22:15:02.370Z,0
2017-07-19T22:20:02.654Z,0
2017-07-19T22:25:02.895Z,0
2017-07-19T22:30:03.150Z,0
2017-07-19T22:35:02.628Z,0
2017-07-19T22:40:02.940Z,0
2017-07-19T22:45:03.294Z,0
2017-07-19T22:50:02.743Z,0
2017-07-19T22:55:03.037Z,0
2017-07-19T23:00:02.724Z,0
2017-07-19T23:05:02.372Z,0
2017-07-19T23:10:02.864Z,0
2017-07-19T23:15:03.135Z,0
2017-07-19T23:20:02.433Z,0
2017-07-19T23:25:02.911Z,0
2017-07-19T23:30:03.184Z,0
2017-07-19T23:35:02.513Z,0
2017-07-19T23:40:02.886Z,0
2017-07-19T23:45:03.216Z,0
2017-07-19T23:50:02.503Z,0
2017-07-19T23:55:02.915Z,0
